Time;durP1;ratioP1;P1;durP2;ratioP2;P2;SDS_P1;SDS_P2;PMS_P1;PMS_P2;Temp;Humidity;BMP_temperature;BMP_pressure;BME280_temperature;BME280_humidity;BME280_pressure;Samples;Min_cycle;Max_cycle;Signal;HPM_P1;HPM_P2
2022/07/10 00:00:09;;;;;;;3.63;2.00;;;;;;;18.05;62.25;101070.88;5040068;28;20056;-59
2022/07/10 00:02:54;;;;;;;6.38;1.95;;;;;;;18.06;62.32;101072.63;5054665;28;20126;-58
2022/07/10 00:05:38;;;;;;;2.63;1.90;;;;;;;18.05;62.25;101071.75;5054872;28;20079;-58
2022/07/10 00:08:22;;;;;;;4.85;1.88;;;;;;;18.05;62.40;101068.25;5055287;28;20095;-58
2022/07/10 00:11:06;;;;;;;4.90;2.20;;;;;;;18.04;62.30;101066.50;5040218;28;20060;-59
2022/07/10 00:13:50;;;;;;;5.15;1.85;;;;;;;18.04;62.39;101066.50;5040265;28;20039;-59
2022/07/10 00:16:34;;;;;;;4.80;2.10;;;;;;;18.02;62.26;101068.22;5055221;28;20047;-59
2022/07/10 00:19:19;;;;;;;8.95;2.00;;;;;;;18.03;62.60;101070.88;5054719;28;20060;-59
2022/07/10 00:22:04;;;;;;;3.58;2.00;;;;;;;18.03;62.21;101072.59;5054468;28;20076;-59
2022/07/10 00:24:50;;;;;;;5.90;2.35;;;;;;;18.02;62.18;101062.97;5039595;28;20051;-58
2022/07/10 00:27:34;;;;;;;5.78;2.47;;;;;;;18.01;62.49;101064.75;5054651;28;20072;-57
2022/07/10 00:30:18;;;;;;;4.88;2.75;;;;;;;17.99;62.43;101058.63;5054936;28;20055;-58
2022/07/10 00:33:02;;;;;;;3.85;2.25;;;;;;;18.00;62.21;101062.09;5054685;28;20408;-58
2022/07/10 00:35:46;;;;;;;3.47;1.70;;;;;;;18.00;62.50;101054.22;5054248;28;20546;-58
2022/07/10 00:38:31;;;;;;;3.72;2.15;;;;;;;17.99;62.40;101048.13;5054879;28;20040;-58
2022/07/10 00:41:15;;;;;;;;;;;;;;;17.98;62.16;101049.00;5039797;28;20068;-58
2022/07/10 00:44:00;;;;;;;6.55;2.22;;;;;;;17.97;62.31;101044.59;5039615;28;19924;-59
2022/07/10 00:46:44;;;;;;;4.45;2.30;;;;;;;17.99;62.38;101047.22;5039559;28;20128;-60
2022/07/10 00:49:28;;;;;;;5.45;2.38;;;;;;;17.99;62.34;101044.63;5054544;28;20068;-60
2022/07/10 00:52:15;;;;;;;4.57;1.98;;;;;;;17.99;62.29;101053.38;5054215;28;20107;-59
2022/07/10 00:54:59;;;;;;;4.00;1.98;;;;;;;17.99;62.13;101047.22;5039230;28;20507;-60
2022/07/10 00:57:43;;;;;;;4.25;2.38;;;;;;;17.97;62.09;101041.97;5054315;28;20645;-59
2022/07/10 01:00:28;;;;;;;10.25;2.65;;;;;;;17.96;62.43;101041.13;5054329;28;20086;-58
2022/07/10 01:03:12;;;;;;;;;;;;;;;17.93;62.03;101038.47;5039057;28;20569;-58
2022/07/10 01:05:57;;;;;;;3.17;2.25;;;;;;;17.93;62.24;101030.59;5054378;28;19947;-58
2022/07/10 01:08:41;;;;;;;3.58;1.98;;;;;;;17.92;61.92;101027.97;5054053;28;20120;-58
2022/07/10 01:11:26;;;;;;;5.35;2.50;;;;;;;17.93;62.19;101029.72;5038797;28;20048;-58
2022/07/10 01:14:10;;;;;;;3.78;2.20;;;;;;;17.91;62.06;101027.09;5054000;28;20075;-59
2022/07/10 01:16:54;;;;;;;5.60;2.55;;;;;;;17.90;62.32;101024.50;5038975;28;20051;-58
2022/07/10 01:19:38;;;;;;;7.43;3.08;;;;;;;17.87;62.11;101025.34;5053766;28;20137;-58
2022/07/10 01:22:22;;;;;;;2.75;2.25;;;;;;;17.85;62.19;101016.59;5053312;28;20094;-59
2022/07/10 01:25:07;;;;;;;4.28;2.10;;;;;;;17.85;62.18;101018.34;5053254;28;20048;-60
2022/07/10 01:27:51;;;;;;;5.65;2.88;;;;;;;17.82;62.22;101019.25;5038502;28;20044;-60
2022/07/10 01:30:35;;;;;;;6.72;2.20;;;;;;;17.82;62.14;101019.25;5038308;28;20055;-58
2022/07/10 01:33:20;;;;;;;6.05;2.17;;;;;;;17.81;62.24;101022.72;5038492;28;20072;-58
2022/07/10 01:36:04;;;;;;;4.97;2.13;;;;;;;17.81;62.39;101026.22;5053469;28;20102;-59
2022/07/10 01:38:51;;;;;;;2.88;2.05;;;;;;;17.80;62.07;101013.97;5053753;28;20055;-58
2022/07/10 01:41:35;;;;;;;4.97;2.30;;;;;;;17.80;62.32;101013.97;5038291;28;20136;-60
2022/07/10 01:44:19;;;;;;;6.22;2.40;;;;;;;17.80;62.22;101018.34;5053399;28;20055;-59
2022/07/10 01:47:03;;;;;;;2.88;2.15;;;;;;;17.81;62.25;101020.97;5053350;28;20106;-59
2022/07/10 01:49:47;;;;;;;4.45;2.33;;;;;;;17.81;62.14;101014.88;5053246;28;20067;-59
2022/07/10 01:52:32;;;;;;;5.07;2.55;;;;;;;17.81;62.02;101015.72;5038501;28;20099;-59
2022/07/10 01:55:16;;;;;;;6.75;2.75;;;;;;;17.80;62.02;101019.22;5053283;28;20124;-60
2022/07/10 01:58:00;;;;;;;5.93;2.45;;;;;;;17.80;61.90;101015.75;5053115;28;20079;-60
2022/07/10 02:00:44;;;;;;;4.35;2.15;;;;;;;17.78;62.04;101013.09;5052962;28;20151;-60
2022/07/10 02:06:31;;;;;;;5.80;2.53;;;;;;;17.76;61.90;101016.59;5053018;28;20059;-58
2022/07/10 02:09:15;;;;;;;5.13;2.35;;;;;;;17.76;61.85;101013.97;5053555;28;20408;-58
2022/07/10 02:11:59;;;;;;;3.30;1.92;;;;;;;17.74;61.85;101013.09;5052859;28;20048;-60
2022/07/10 02:14:43;;;;;;;6.00;2.55;;;;;;;17.73;61.79;101013.97;5052703;28;20478;-58
2022/07/10 02:17:27;;;;;;;4.65;2.60;;;;;;;17.72;61.70;101007.84;5053501;28;20115;-60
2022/07/10 02:20:11;;;;;;;3.55;2.22;;;;;;;17.72;61.86;101001.72;5052607;28;20554;-60
2022/07/10 02:22:56;;;;;;;4.30;2.15;;;;;;;17.70;61.79;100998.22;5053301;28;20094;-59
2022/07/10 02:25:39;;;;;;;5.25;2.38;;;;;;;17.71;61.83;100994.72;5052853;28;20115;-59
2022/07/10 02:28:23;;;;;;;5.38;2.42;;;;;;;17.70;61.82;100996.50;5038076;28;20074;-59
2022/07/10 02:31:07;;;;;;;6.47;2.10;;;;;;;17.70;61.69;100998.22;5053045;28;20076;-59
2022/07/10 02:33:51;;;;;;;6.05;2.58;;;;;;;17.68;61.70;101006.09;5053221;28;20044;-58
2022/07/10 02:36:36;;;;;;;7.05;2.38;;;;;;;17.67;61.78;100998.25;5053086;28;20174;-58
2022/07/10 02:39:23;;;;;;;4.35;2.30;;;;;;;17.65;61.88;101001.72;5038134;28;20064;-58
2022/07/10 02:42:07;;;;;;;4.80;2.67;;;;;;;17.64;61.55;100996.47;5052949;28;20550;-59
2022/07/10 02:44:54;;;;;;;4.82;2.20;;;;;;;17.64;61.49;100996.47;5052434;28;20040;-58
2022/07/10 02:47:38;;;;;;;3.53;2.67;;;;;;;17.63;61.68;100995.59;5052632;28;20044;-60
2022/07/10 02:50:22;;;;;;;4.13;2.42;;;;;;;17.63;61.54;100995.59;5038122;28;20076;-58
2022/07/10 02:53:06;;;;;;;5.20;2.50;;;;;;;17.63;61.62;100992.09;5037959;28;20099;-58
2022/07/10 02:55:50;;;;;;;3.35;2.15;;;;;;;17.61;61.77;100997.34;5037630;28;20043;-58
2022/07/10 02:58:37;;;;;;;4.07;2.00;;;;;;;17.62;61.74;101001.72;5052569;28;20051;-59
2022/07/10 03:01:21;;;;;;;4.43;2.47;;;;;;;17.61;61.76;100992.09;5041150;28;20075;-59
2022/07/10 03:04:05;;;;;;;6.55;2.20;;;;;;;17.61;61.56;100994.72;5041663;28;20133;-58
2022/07/10 03:06:49;;;;;;;6.95;2.28;;;;;;;17.62;61.70;100995.59;5056094;28;20075;-60
2022/07/10 03:09:33;;;;;;;5.43;2.63;;;;;;;17.61;61.61;100989.47;5056068;28;20048;-59
2022/07/10 03:12:17;;;;;;;2.95;2.05;;;;;;;17.62;61.75;100996.47;5056475;28;20411;-58
2022/07/10 03:15:01;;;;;;;3.65;2.42;;;;;;;17.61;61.83;100996.44;5056186;28;20051;-58
2022/07/10 03:17:45;;;;;;;3.05;2.10;;;;;;;17.60;61.54;100995.59;5056265;28;20047;-58
2022/07/10 03:20:29;;;;;;;4.32;2.10;;;;;;;17.60;61.61;101000.84;5055525;28;20040;-58
2022/07/10 03:23:13;;;;;;;3.53;2.72;;;;;;;17.58;61.56;100999.09;5055815;28;20064;-59
2022/07/10 03:25:56;;;;;;;7.93;3.03;;;;;;;17.57;61.65;100999.97;5041164;28;20573;-58
2022/07/10 03:28:40;;;;;;;4.13;2.60;;;;;;;17.57;61.57;100987.72;5055992;28;20117;-58
2022/07/10 03:31:25;;;;;;;8.60;2.58;;;;;;;17.56;61.53;100993.84;5055634;28;20048;-60
2022/07/10 03:34:09;;;;;;;3.88;2.22;;;;;;;17.55;61.85;100991.22;5055676;28;20055;-60
2022/07/10 03:36:54;;;;;;;9.77;2.83;;;;;;;17.54;61.74;100987.72;5040494;28;20048;-59
2022/07/10 03:39:38;;;;;;;3.88;2.40;;;;;;;17.53;61.57;100985.09;5055307;28;20101;-59
2022/07/10 03:42:22;;;;;;;5.82;2.67;;;;;;;17.50;61.23;100985.97;5055897;28;20132;-60
2022/07/10 03:45:06;;;;;;;4.80;3.10;;;;;;;17.48;61.41;100988.56;5055331;28;20074;-60
2022/07/10 03:47:50;;;;;;;4.00;2.50;;;;;;;17.46;61.33;100989.44;5055426;28;20572;-58
2022/07/10 03:50:34;;;;;;;5.55;2.83;;;;;;;17.46;61.18;100986.84;5039953;28;20079;-58
2022/07/10 03:53:19;;;;;;;3.45;2.30;;;;;;;17.42;61.08;100980.72;5055561;28;20147;-59
2022/07/10 03:56:04;;;;;;;7.65;2.92;;;;;;;17.42;61.37;100982.44;5055609;28;20056;-60
2022/07/10 03:58:48;;;;;;;4.50;2.38;;;;;;;17.41;61.15;100983.31;5040567;28;20048;-60
2022/07/10 04:01:32;;;;;;;5.20;2.60;;;;;;;17.39;61.24;100987.66;5039713;28;20060;-59
2022/07/10 04:04:16;;;;;;;3.15;2.30;;;;;;;17.40;61.41;100984.19;5055189;28;20444;-58
2022/07/10 04:07:00;;;;;;;6.35;2.72;;;;;;;17.38;61.18;100983.28;5054824;28;20470;-60
2022/07/10 04:09:44;;;;;;;5.18;2.65;;;;;;;17.37;61.08;100986.78;5054549;28;20113;-58
2022/07/10 04:12:28;;;;;;;5.57;2.67;;;;;;;17.35;61.28;100984.19;5055214;28;20056;-59
2022/07/10 04:15:12;;;;;;;4.00;2.78;;;;;;;17.35;61.33;100987.69;5039843;28;20412;-58
2022/07/10 04:17:56;;;;;;;5.18;2.30;;;;;;;17.33;61.10;100985.91;5054797;28;20106;-59
2022/07/10 04:20:41;;;;;;;6.28;2.42;;;;;;;17.31;60.92;100985.03;5054607;28;20625;-59
2022/07/10 04:23:25;;;;;;;5.50;2.55;;;;;;;17.30;61.34;100978.94;5054840;28;20506;-59
2022/07/10 04:26:09;;;;;;;7.95;2.58;;;;;;;17.29;61.20;100984.13;5055097;28;20125;-59
2022/07/10 04:28:53;;;;;;;5.25;2.80;;;;;;;17.29;61.24;100992.91;5054743;28;20461;-59
2022/07/10 04:31:37;;;;;;;5.07;2.70;;;;;;;17.27;61.14;100989.38;5054862;28;20043;-58
2022/07/10 04:34:21;;;;;;;6.40;2.80;;;;;;;17.28;61.25;100996.38;5054995;28;20095;-59
2022/07/10 04:37:07;;;;;;;5.05;2.92;;;;;;;17.25;61.30;100985.03;5054650;28;20052;-58
2022/07/10 04:39:51;;;;;;;8.45;2.85;;;;;;;17.24;61.10;100981.50;5039264;28;20052;-58
2022/07/10 04:42:35;;;;;;;6.50;2.95;;;;;;;17.23;61.20;100985.00;5054171;28;20044;-59
2022/07/10 04:45:19;;;;;;;5.90;2.50;;;;;;;17.22;61.12;100979.78;5054228;28;20048;-60
2022/07/10 04:48:06;;;;;;;5.90;2.90;;;;;;;17.23;61.08;100989.38;5054323;28;20047;-59
2022/07/10 04:50:51;;;;;;;4.85;2.70;;;;;;;17.20;61.12;100980.63;5039628;28;20143;-58
2022/07/10 04:53:35;;;;;;;7.82;2.88;;;;;;;17.21;61.18;100994.59;5053915;28;20090;-59
2022/07/10 04:56:19;;;;;;;5.95;2.90;;;;;;;17.19;61.05;101001.59;5054066;28;20047;-58
2022/07/10 04:59:03;;;;;;;4.78;2.30;;;;;;;17.19;61.18;101001.59;5054148;28;20043;-58
2022/07/10 05:01:47;;;;;;;7.18;3.50;;;;;;;17.17;61.01;101001.56;5038386;28;20412;-59
2022/07/10 05:04:30;;;;;;;4.47;2.45;;;;;;;17.17;61.08;101000.72;5054446;28;20052;-58
2022/07/10 05:07:15;;;;;;;4.10;2.50;;;;;;;17.17;61.12;101008.56;5054036;28;20484;-58
2022/07/10 05:09:58;;;;;;;3.83;2.67;;;;;;;17.15;61.04;101005.06;5054262;28;20459;-59
2022/07/10 05:12:42;;;;;;;4.97;2.42;;;;;;;17.13;61.24;101006.81;5053912;28;20476;-59
2022/07/10 05:15:26;;;;;;;5.57;2.88;;;;;;;17.11;61.11;101011.16;5053986;28;20411;-59
2022/07/10 05:18:10;;;;;;;4.60;2.80;;;;;;;17.12;61.29;101015.53;5053442;28;20060;-58
2022/07/10 05:20:54;;;;;;;4.22;2.70;;;;;;;17.11;61.25;101014.66;5053916;28;20040;-59
2022/07/10 05:23:38;;;;;;;3.70;2.97;;;;;;;17.11;61.05;101019.91;5053470;28;20075;-59
2022/07/10 05:26:22;;;;;;;;;;;;;;;17.10;61.08;101025.13;5038895;28;20526;-59
2022/07/10 05:29:06;;;;;;;8.43;2.63;;;;;;;17.10;61.37;101019.88;5054140;28;19918;-60
2022/07/10 05:31:51;;;;;;;4.38;2.58;;;;;;;17.11;61.08;101022.53;5053304;28;20059;-60
2022/07/10 05:34:35;;;;;;;7.05;2.47;;;;;;;17.13;61.35;101017.28;5038783;28;20122;-59
2022/07/10 05:37:18;;;;;;;6.03;3.25;;;;;;;17.11;61.32;101021.63;5053086;28;20051;-60
2022/07/10 05:40:03;;;;;;;4.68;3.25;;;;;;;17.11;61.30;101011.16;5053371;28;20064;-59
2022/07/10 05:42:49;;;;;;;6.95;3.42;;;;;;;17.10;61.33;101015.53;5038205;28;20049;-59
2022/07/10 05:45:33;;;;;;;7.00;3.25;;;;;;;17.10;61.33;101015.53;5053476;28;20047;-61
2022/07/10 05:48:19;;;;;;;6.80;2.80;;;;;;;17.11;61.32;101019.00;5053171;28;20047;-58
2022/07/10 05:51:04;;;;;;;6.65;3.30;;;;;;;17.13;61.47;101023.38;5053171;28;20098;-58
2022/07/10 05:53:48;;;;;;;5.03;2.92;;;;;;;17.12;61.85;101015.53;5053363;28;20408;-59
2022/07/10 05:56:32;;;;;;;12.02;3.67;;;;;;;17.12;61.50;101021.66;5053266;28;20052;-58
2022/07/10 05:59:16;;;;;;;7.38;3.20;;;;;;;17.12;61.38;101012.91;5038369;28;20079;-58
2022/07/10 06:02:00;;;;;;;7.95;3.60;;;;;;;17.10;61.63;101014.63;5053050;28;20471;-58
2022/07/10 06:04:44;;;;;;;4.55;3.00;;;;;;;17.07;61.68;101012.00;5053345;28;20052;-59
2022/07/10 06:07:29;;;;;;;7.25;3.08;;;;;;;17.07;61.57;101009.38;5053182;28;20051;-58
2022/07/10 06:10:13;;;;;;;5.15;2.85;;;;;;;17.07;61.67;101010.28;5053145;28;20051;-58
2022/07/10 06:15:23;;;;;;;4.68;3.17;;;;;;;17.07;61.70;101010.28;5111560;27;20261;-59
2022/07/10 06:18:07;;;;;;;5.90;3.10;;;;;;;17.07;61.61;101015.50;5110448;28;20508;-58
2022/07/10 06:20:51;;;;;;;5.97;3.05;;;;;;;17.05;61.53;101012.88;5111412;28;20181;-58
2022/07/10 06:23:35;;;;;;;12.13;3.58;;;;;;;17.06;61.78;101016.38;5110842;28;20050;-58
2022/07/10 06:26:19;;;;;;;4.88;3.25;;;;;;;17.06;61.81;101024.22;5110744;28;20551;-59
2022/07/10 06:29:03;;;;;;;5.30;3.00;;;;;;;17.07;61.74;101018.13;5111104;28;20070;-58
2022/07/10 06:31:47;;;;;;;4.65;3.05;;;;;;;17.08;61.86;101019.88;5110949;28;20139;-59
2022/07/10 06:34:31;;;;;;;8.30;3.28;;;;;;;17.08;61.79;101025.13;5110784;28;20093;-58
2022/07/10 06:37:15;;;;;;;8.52;3.28;;;;;;;17.08;61.81;101019.00;5111075;28;20054;-59
2022/07/10 06:39:59;;;;;;;6.28;3.42;;;;;;;17.08;61.95;101021.59;5110255;28;20063;-59
2022/07/10 06:42:43;;;;;;;5.25;3.20;;;;;;;17.08;62.12;101026.84;5111055;28;20046;-59
2022/07/10 06:45:27;;;;;;;6.43;3.15;;;;;;;17.05;61.96;101022.47;5110849;28;20051;-58
2022/07/10 06:48:11;;;;;;;;;;;;;;;17.04;62.10;101020.72;5111244;28;20398;-59
2022/07/10 06:50:55;;;;;;;4.45;2.65;;;;;;;17.01;62.17;101013.75;5110702;28;20278;-58
2022/07/10 06:53:39;;;;;;;6.85;2.92;;;;;;;17.02;62.12;101010.25;5109753;28;20506;-59
2022/07/10 06:56:23;;;;;;;11.48;3.35;;;;;;;17.03;62.14;101005.88;5110447;28;20127;-58
2022/07/10 06:59:07;;;;;;;9.00;3.38;;;;;;;17.03;61.94;101009.38;5110099;28;20575;-58
2022/07/10 07:01:51;;;;;;;;;;;;;;;17.01;61.96;101012.84;5110886;28;20074;-58
2022/07/10 07:04:35;;;;;;;8.27;2.97;;;;;;;17.01;62.13;101018.09;5109980;28;19923;-58
2022/07/10 07:07:19;;;;;;;6.70;3.35;;;;;;;17.01;62.08;101012.84;5110196;28;20121;-58
2022/07/10 07:10:04;;;;;;;6.07;2.85;;;;;;;17.03;62.13;101019.88;5110484;28;20066;-60
2022/07/10 07:12:48;;;;;;;4.45;2.65;;;;;;;17.04;62.39;101019.00;5109542;28;20104;-59
2022/07/10 07:15:35;;;;;;;5.28;2.70;;;;;;;17.00;62.21;101018.94;5110538;28;20097;-60
2022/07/10 07:18:21;;;;;;;4.63;2.78;;;;;;;17.02;62.07;101025.06;5109165;28;20109;-59
2022/07/10 07:24:08;;;;;;;8.27;2.97;;;;;;;16.98;62.23;101036.38;5109620;28;20509;-60
2022/07/10 07:26:52;;;;;;;11.48;3.03;;;;;;;16.98;62.32;101032.03;5094829;28;20114;-59
2022/07/10 07:29:37;;;;;;;4.55;2.80;;;;;;;16.97;62.60;101027.69;5096197;28;20100;-59
2022/07/10 07:32:21;;;;;;;4.28;2.40;;;;;;;16.97;62.55;101026.81;5095637;28;20140;-60
2022/07/10 07:35:06;;;;;;;4.60;2.30;;;;;;;16.98;62.58;101029.44;5096187;28;20434;-60
2022/07/10 07:37:51;;;;;;;6.80;2.42;;;;;;;16.98;62.43;101028.53;5095886;28;20050;-59
2022/07/10 07:40:37;;;;;;;12.23;3.05;;;;;;;16.98;62.63;101028.53;5094989;28;20117;-60
2022/07/10 07:43:21;;;;;;;6.03;2.97;;;;;;;16.99;62.52;101036.41;5095698;28;20050;-60
2022/07/10 07:46:05;;;;;;;6.40;2.30;;;;;;;16.98;62.58;101033.78;5095996;28;20186;-59
2022/07/10 07:48:49;;;;;;;4.00;2.20;;;;;;;16.98;62.64;101039.00;5095403;28;20051;-61
2022/07/10 07:51:33;;;;;;;5.57;2.65;;;;;;;16.98;62.71;101031.16;5095517;28;20114;-59
2022/07/10 07:54:17;;;;;;;5.70;2.85;;;;;;;16.98;62.56;101033.78;5095776;28;20051;-60
2022/07/10 07:57:01;;;;;;;4.25;2.30;;;;;;;16.98;62.67;101032.03;5095745;28;20039;-60
2022/07/10 07:59:45;;;;;;;4.53;2.22;;;;;;;16.98;62.72;101029.44;5095493;28;20050;-60
2022/07/10 08:02:29;;;;;;;5.68;2.80;;;;;;;16.96;62.78;101025.94;5094910;28;20046;-60
2022/07/10 08:05:13;;;;;;;12.85;2.83;;;;;;;16.96;62.62;101018.06;5095695;28;20116;-60
2022/07/10 08:08:01;;;;;;;4.15;2.50;;;;;;;16.98;62.56;101015.44;5095549;28;20051;-60
2022/07/10 08:10:45;;;;;;;8.13;2.58;;;;;;;16.97;62.74;101019.81;5095350;28;20070;-60
2022/07/10 08:13:29;;;;;;;5.28;2.38;;;;;;;16.96;62.51;101020.69;5095291;28;20506;-60
2022/07/10 08:16:13;;;;;;;6.15;2.55;;;;;;;16.96;62.53;101023.31;5095065;28;20070;-60
2022/07/10 08:18:57;;;;;;;6.43;2.40;;;;;;;16.96;62.66;101020.69;5095346;28;20051;-59
2022/07/10 08:21:41;;;;;;;5.22;2.50;;;;;;;16.98;62.70;101018.06;5095546;28;20051;-60
2022/07/10 08:24:25;;;;;;;6.28;2.80;;;;;;;16.98;62.59;101018.97;5094843;28;20537;-60
2022/07/10 08:27:08;;;;;;;6.05;2.60;;;;;;;16.99;62.71;101023.31;5095403;28;20058;-60
2022/07/10 08:29:52;;;;;;;7.60;2.33;;;;;;;17.01;62.72;101020.69;5095112;28;20513;-60
2022/07/10 08:32:37;;;;;;;12.70;2.75;;;;;;;17.02;62.77;101022.47;5095106;28;20403;-60
2022/07/10 08:35:22;;;;;;;6.15;2.45;;;;;;;17.03;62.61;101021.59;5094261;28;20062;-60
2022/07/10 08:38:08;;;;;;;7.70;2.70;;;;;;;17.03;62.58;101019.88;5094071;28;20125;-60
2022/07/10 08:40:57;;;;;;;6.88;2.28;;;;;;;17.04;62.86;101023.34;5094329;28;20059;-60
2022/07/10 08:43:41;;;;;;;2.72;1.88;;;;;;;17.03;62.69;101026.81;5095004;28;20526;-59
2022/07/10 08:46:25;;;;;;;4.72;2.85;;;;;;;17.03;62.69;101030.34;5094337;28;20055;-59
2022/07/10 08:49:11;;;;;;;;;;;;;;;17.03;62.71;101026.81;5094178;28;20144;-60
2022/07/10 08:52:01;;;;;;;6.82;2.38;;;;;;;17.02;62.79;101014.59;5095218;28;20416;-60
2022/07/10 08:54:45;;;;;;;9.07;2.85;;;;;;;17.02;62.67;101010.25;5094374;28;20530;-60
2022/07/10 08:57:31;;;;;;;5.90;2.40;;;;;;;17.04;62.66;101005.91;5094686;28;20050;-60
2022/07/10 09:00:16;;;;;;;3.83;2.03;;;;;;;17.07;62.62;101001.53;5094521;28;20094;-60
2022/07/10 09:03:00;;;;;;;6.63;2.40;;;;;;;17.06;62.71;100995.44;5094524;28;20513;-60
2022/07/10 09:05:45;;;;;;;5.47;2.72;;;;;;;17.08;62.75;100998.94;5093821;28;20074;-60
2022/07/10 09:08:33;;;;;;;10.02;2.25;;;;;;;17.08;62.49;100998.94;5094234;28;20055;-61
2022/07/10 09:11:18;;;;;;;5.32;2.28;;;;;;;17.09;62.76;100992.81;5093427;28;20047;-60
2022/07/10 09:14:07;;;;;;;5.05;2.25;;;;;;;17.10;62.65;100996.31;5093050;28;20066;-60
2022/07/10 09:16:51;;;;;;;4.80;2.42;;;;;;;17.10;62.61;100986.72;5093143;28;20133;-60
2022/07/10 09:19:36;;;;;;;3.70;2.30;;;;;;;17.10;62.69;100986.72;5093493;28;20059;-60
2022/07/10 09:22:21;;;;;;;3.90;1.95;;;;;;;17.11;62.76;100971.88;5093876;28;20088;-60
2022/07/10 09:25:12;;;;;;;5.90;2.35;;;;;;;17.11;62.77;100979.72;5092727;28;20100;-60
2022/07/10 09:27:58;;;;;;;6.50;2.08;;;;;;;17.12;62.61;100971.00;5093696;28;20043;-60
2022/07/10 09:30:42;;;;;;;7.97;2.40;;;;;;;17.15;62.72;100978.88;5094371;28;20047;-60
2022/07/10 09:33:31;;;;;;;4.57;2.20;;;;;;;17.14;62.74;100977.13;5094216;28;20536;-61
2022/07/10 09:36:16;;;;;;;7.18;2.58;;;;;;;17.15;62.57;100984.97;5093994;28;20082;-60
2022/07/10 09:39:00;;;;;;;10.27;2.20;;;;;;;17.14;62.60;100975.38;5094121;28;20074;-60
2022/07/10 09:41:44;;;;;;;5.32;2.22;;;;;;;17.15;62.72;100981.50;5093442;28;20625;-60
2022/07/10 09:44:27;;;;;;;6.55;2.20;;;;;;;17.15;62.54;100978.88;5093075;28;20142;-60
2022/07/10 09:47:22;;;;;;;5.72;2.35;;;;;;;17.15;62.60;100978.88;5093817;28;20047;-60
2022/07/10 09:50:33;;;;;;;5.13;2.30;;;;;;;17.15;62.62;100976.25;5093008;28;20093;-60
2022/07/10 09:53:17;;;;;;;3.40;2.10;;;;;;;17.14;62.72;100975.38;5093401;28;20070;-59
2022/07/10 09:56:02;;;;;;;5.65;2.95;;;;;;;17.14;62.75;100971.88;5093409;28;20044;-60
2022/07/10 09:58:52;;;;;;;7.55;3.03;;;;;;;17.14;62.58;100975.38;5092573;28;20043;-60
2022/07/10 10:01:39;;;;;;;7.30;2.53;;;;;;;17.15;62.73;100965.78;5092525;28;20066;-60
2022/07/10 10:04:27;;;;;;;9.20;3.30;;;;;;;17.14;62.78;100967.50;5093360;28;20070;-60
2022/07/10 10:07:13;;;;;;;4.80;2.03;;;;;;;17.15;62.74;100958.78;5092947;28;20054;-60
2022/07/10 10:10:01;;;;;;;3.65;2.13;;;;;;;17.16;62.65;100960.53;5093351;28;20101;-60
2022/07/10 10:12:54;;;;;;;2.55;2.22;;;;;;;17.20;62.52;100964.91;5092664;28;20091;-60
2022/07/10 10:15:39;;;;;;;6.05;2.45;;;;;;;17.21;62.71;100968.41;5092568;28;20129;-59
2022/07/10 10:18:25;;;;;;;5.45;2.72;;;;;;;17.21;62.51;100963.16;5092701;28;20051;-59
2022/07/10 10:21:09;;;;;;;5.78;2.22;;;;;;;17.22;62.59;100966.66;5092894;28;20445;-59
2022/07/10 10:23:55;;;;;;;5.95;2.50;;;;;;;17.19;62.57;100967.53;5093082;28;20059;-59
2022/07/10 10:26:41;;;;;;;7.13;2.50;;;;;;;17.21;62.72;100971.03;5092389;28;20047;-59
2022/07/10 10:29:25;;;;;;;4.32;2.40;;;;;;;17.22;62.54;100971.91;5092861;28;20043;-59
2022/07/10 10:32:09;;;;;;;5.43;2.60;;;;;;;17.22;62.54;100966.66;5093369;28;20514;-58
2022/07/10 10:34:57;;;;;;;8.20;2.70;;;;;;;17.23;62.70;100965.81;5092165;28;20557;-58
2022/07/10 10:37:43;;;;;;;12.45;2.97;;;;;;;17.24;62.70;100967.56;5092608;28;20078;-59
2022/07/10 10:40:32;;;;;;;4.88;2.80;;;;;;;17.24;62.63;100968.41;5092540;28;20042;-59
2022/07/10 10:43:20;;;;;;;7.07;2.75;;;;;;;17.24;62.76;100968.41;5092448;28;20410;-59
2022/07/10 10:46:24;;;;;;;4.57;1.80;;;;;;;17.24;62.56;100973.66;5091883;28;20465;-58
2022/07/10 10:49:08;;;;;;;5.10;2.42;;;;;;;17.23;62.70;100964.03;5093052;28;20550;-59
2022/07/10 10:52:03;;;;;;;5.68;2.20;;;;;;;17.24;62.58;100975.41;5092427;28;20089;-59
2022/07/10 10:54:57;;;;;;;5.05;2.17;;;;;;;17.24;62.61;100968.41;5092619;28;20039;-59
2022/07/10 10:57:47;;;;;;;4.90;2.30;;;;;;;17.25;62.78;100970.16;5092929;28;20560;-59
2022/07/10 11:00:37;;;;;;;3.75;2.42;;;;;;;17.24;62.81;100972.78;5093830;28;20051;-60
2022/07/10 11:03:26;;;;;;;6.07;2.38;;;;;;;17.24;62.76;100968.41;5095742;28;20063;-58
2022/07/10 11:06:13;;;;;;;3.67;1.95;;;;;;;17.24;62.74;100962.31;5096020;28;20069;-59
2022/07/10 11:09:00;;;;;;;6.70;2.53;;;;;;;17.24;62.73;100959.69;5096053;28;20094;-58
2022/07/10 11:11:44;;;;;;;5.38;2.53;;;;;;;17.24;62.74;100967.56;5095787;28;20089;-59
2022/07/10 11:14:30;;;;;;;7.32;2.00;;;;;;;17.25;62.69;100964.06;5096652;28;20062;-58
2022/07/10 11:17:14;;;;;;;4.28;1.98;;;;;;;17.24;62.75;100955.31;5095577;28;20047;-58
2022/07/10 11:20:01;;;;;;;4.05;2.17;;;;;;;17.24;62.59;100952.69;5096473;28;20433;-60
2022/07/10 11:23:03;;;;;;;4.60;2.10;;;;;;;17.25;62.73;100954.44;5095971;28;20126;-58
2022/07/10 11:26:10;;;;;;;4.28;2.92;;;;;;;17.24;62.69;100950.06;5096706;28;20093;-58
2022/07/10 11:29:05;;;;;;;4.93;2.40;;;;;;;17.26;62.61;100947.47;5095491;28;20423;-58
2022/07/10 11:31:57;;;;;;;6.90;2.10;;;;;;;17.25;62.69;100949.22;5095763;28;20464;-59
2022/07/10 11:34:41;;;;;;;8.52;2.85;;;;;;;17.27;62.77;100947.47;5096296;28;20047;-59
2022/07/10 11:37:29;;;;;;;4.97;2.10;;;;;;;17.27;62.83;100942.25;5096228;28;20133;-59
2022/07/10 11:40:15;;;;;;;3.92;2.28;;;;;;;17.27;62.82;100947.47;5095584;28;20047;-58
2022/07/10 11:43:00;;;;;;;5.13;2.33;;;;;;;17.27;62.80;100944.84;5096433;28;20399;-61
2022/07/10 11:45:44;;;;;;;6.70;2.25;;;;;;;17.28;62.74;100946.59;5096212;28;20131;-58
2022/07/10 11:48:28;;;;;;;8.23;2.83;;;;;;;17.31;62.79;100945.72;5095343;28;20135;-59
2022/07/10 11:51:20;;;;;;;3.78;2.25;;;;;;;17.32;62.60;100943.13;5095907;28;20417;-60
2022/07/10 11:54:09;;;;;;;5.78;2.45;;;;;;;17.33;62.64;100942.25;5095660;28;20081;-58
2022/07/10 11:56:53;;;;;;;3.45;2.13;;;;;;;17.32;62.69;100937.88;5095911;28;20043;-60
2022/07/10 11:59:38;;;;;;;4.32;2.33;;;;;;;17.33;62.71;100942.25;5096196;28;20074;-60
2022/07/10 12:02:22;;;;;;;4.70;2.33;;;;;;;17.35;62.91;100943.16;5094873;28;20048;-60
2022/07/10 12:05:07;;;;;;;4.50;2.30;;;;;;;17.36;62.71;100933.53;5095743;28;20097;-60
2022/07/10 12:07:52;;;;;;;7.30;2.63;;;;;;;17.35;62.71;100935.28;5094595;28;20047;-60
2022/07/10 12:10:36;;;;;;;;;;;;;;;17.33;62.71;100939.66;5095635;28;20054;-60
2022/07/10 12:13:21;;;;;;;4.10;2.13;;;;;;;17.32;62.70;100943.13;5095141;28;20325;-59
2022/07/10 12:16:05;;;;;;;3.65;2.42;;;;;;;17.35;62.54;100944.88;5095520;28;20047;-59
2022/07/10 12:18:50;;;;;;;6.55;2.45;;;;;;;17.35;62.60;100939.63;5095608;28;20051;-59
2022/07/10 12:21:35;;;;;;;5.68;2.75;;;;;;;17.37;62.93;100952.72;5095396;28;20510;-59
2022/07/10 12:24:20;;;;;;;7.75;2.20;;;;;;;17.37;62.63;100942.25;5094758;28;20059;-59
2022/07/10 12:27:04;;;;;;;3.90;2.78;;;;;;;17.38;62.71;100946.63;5094582;28;20048;-58
2022/07/10 12:30:01;;;;;;;6.43;2.25;;;;;;;17.37;62.63;100947.47;5095015;28;20101;-58
2022/07/10 12:32:45;;;;;;;6.13;3.10;;;;;;;17.37;62.81;100947.47;5094251;28;20216;-58
2022/07/10 12:35:29;;;;;;;6.90;2.60;;;;;;;17.40;62.44;100931.78;5093616;28;20047;-58
2022/07/10 12:38:22;;;;;;;6.55;2.50;;;;;;;17.39;62.67;100936.16;5095123;28;20514;-59
2022/07/10 12:41:11;;;;;;;4.55;2.80;;;;;;;17.39;62.92;100935.28;5094944;28;20407;-59
2022/07/10 12:43:55;;;;;;;5.93;2.95;;;;;;;17.39;62.74;100933.53;5095739;28;20461;-59
2022/07/10 12:46:39;;;;;;;4.90;2.40;;;;;;;17.42;62.82;100945.75;5095075;28;20047;-59
2022/07/10 12:49:23;;;;;;;6.97;2.55;;;;;;;17.41;62.87;100936.16;5094592;28;20505;-59
2022/07/10 12:52:19;;;;;;;3.50;2.45;;;;;;;17.42;62.83;100930.94;5095154;28;20082;-59
2022/07/10 12:55:10;;;;;;;14.50;2.80;;;;;;;17.43;62.78;100924.81;5094518;28;20094;-58
2022/07/10 12:58:05;;;;;;;8.60;2.80;;;;;;;17.42;62.78;100909.97;5093657;28;20051;-58